Time;durP1;ratioP1;P1;durP2;ratioP2;P2;SDS_P1;SDS_P2;PMS_P1;PMS_P2;Temp;Humidity;BMP_temperature;BMP_pressure;BME280_temperature;BME280_humidity;BME280_pressure;Samples;Min_cycle;Max_cycle;Signal;HPM_P1;HPM_P2
2021/04/08 00:01:11;;;;;;;5.80;3.03;;;1.60;99.90;;;;;;5037375;28;20040;-88
2021/04/08 00:03:37;;;;;;;7.23;2.63;;;1.60;99.90;;;;;;5037958;28;20069;-88
2021/04/08 00:06:03;;;;;;;6.90;3.03;;;1.60;99.90;;;;;;5036438;28;20037;-88
2021/04/08 00:08:28;;;;;;;7.27;3.00;;;1.50;99.90;;;;;;5036382;28;20025;-89
2021/04/08 00:10:54;;;;;;;7.07;2.80;;;1.40;99.90;;;;;;5036482;28;20017;-89
2021/04/08 00:13:20;;;;;;;6.07;3.00;;;1.50;99.90;;;;;;5037286;28;20039;-88
2021/04/08 00:15:45;;;;;;;8.10;3.17;;;1.30;99.90;;;;;;5052898;28;20029;-88
2021/04/08 00:18:11;;;;;;;9.90;3.33;;;1.20;99.90;;;;;;5036407;28;20431;-89
2021/04/08 00:20:37;;;;;;;6.60;3.03;;;1.30;99.90;;;;;;5037323;28;20030;-88
2021/04/08 00:23:03;;;;;;;10.13;2.87;;;1.20;99.90;;;;;;5036604;28;20076;-88
2021/04/08 00:25:29;;;;;;;7.80;3.37;;;1.20;99.90;;;;;;5035742;28;20025;-88
2021/04/08 00:27:54;;;;;;;9.60;3.60;;;1.20;99.90;;;;;;5037134;28;20040;-89
2021/04/08 00:30:21;;;;;;;7.13;3.57;;;1.20;99.90;;;;;;5035856;28;20557;-89
2021/04/08 00:32:46;;;;;;;6.77;3.27;;;1.10;99.90;;;;;;5027852;28;20041;-89
2021/04/08 00:35:12;;;;;;;6.97;3.70;;;1.10;99.90;;;;;;5034516;28;20382;-89
2021/04/08 00:37:38;;;;;;;7.00;3.20;;;1.10;99.90;;;;;;5035016;28;20037;-88
2021/04/08 00:40:09;;;;;;;8.07;3.60;;;1.10;99.90;;;;;;5035121;28;20033;-89
2021/04/08 00:42:35;;;;;;;11.13;3.70;;;1.10;99.90;;;;;;5037117;28;20026;-88
2021/04/08 00:45:00;;;;;;;9.10;3.97;;;1.10;99.90;;;;;;5035581;28;20052;-88
2021/04/08 00:47:26;;;;;;;6.67;3.77;;;1.40;99.90;;;;;;5037422;28;20025;-88
2021/04/08 00:49:52;;;;;;;8.60;3.60;;;1.20;99.90;;;;;;5051514;28;20030;-89
2021/04/08 00:52:17;;;;;;;8.13;3.63;;;1.20;99.90;;;;;;5036025;28;20478;-89
2021/04/08 00:54:43;;;;;;;10.57;3.73;;;1.10;99.90;;;;;;5035114;28;20055;-89
2021/04/08 00:57:09;;;;;;;9.87;3.70;;;1.20;99.90;;;;;;5051628;28;20086;-89
2021/04/08 00:59:35;;;;;;;8.33;4.00;;;1.30;99.90;;;;;;5035312;28;20288;-88
2021/04/08 01:02:01;;;;;;;7.13;3.77;;;1.30;99.90;;;;;;5035955;28;20025;-89
2021/04/08 01:04:27;;;;;;;6.30;3.40;;;1.30;99.90;;;;;;5035812;28;20112;-88
2021/04/08 01:06:53;;;;;;;6.87;3.47;;;1.30;99.90;;;;;;5038289;28;20028;-89
2021/04/08 01:09:18;;;;;;;8.43;3.93;;;1.30;99.90;;;;;;5037676;28;20093;-89
2021/04/08 01:11:44;;;;;;;9.20;3.53;;;1.30;99.90;;;;;;5035326;28;20445;-89
2021/04/08 01:14:10;;;;;;;6.70;3.50;;;1.30;99.90;;;;;;5034918;28;20409;-89
2021/04/08 01:17:15;;;;;;;7.70;3.47;;;1.30;99.90;;;;;;5035764;28;20028;-89
2021/04/08 01:20:20;;;;;;;10.90;4.27;;;1.30;99.90;;;;;;5029548;28;20037;-88
2021/04/08 01:23:20;;;;;;;12.00;3.73;;;1.40;99.90;;;;;;5034470;28;20497;-88
2021/04/08 01:26:04;;;;;;;8.20;3.80;;;1.40;99.90;;;;;;5035620;28;20394;-89
2021/04/08 01:28:34;;;;;;;8.67;3.87;;;1.50;99.90;;;;;;5033731;28;20156;-88
2021/04/08 01:31:04;;;;;;;7.57;3.83;;;1.30;99.90;;;;;;5034622;28;20033;-89
2021/04/08 01:33:42;;;;;;;9.60;4.13;;;1.40;99.90;;;;;;5034511;28;20032;-88
2021/04/08 01:36:10;;;;;;;10.23;4.50;;;1.30;99.90;;;;;;5019006;28;20022;-88
2021/04/08 01:38:43;;;;;;;6.70;3.57;;;1.30;99.90;;;;;;5032978;28;20029;-89
2021/04/08 01:41:11;;;;;;;9.60;3.90;;;1.40;99.90;;;;;;5031539;28;20425;-89
2021/04/08 01:43:43;;;;;;;12.43;4.23;;;1.40;99.90;;;;;;5031744;28;20032;-89
2021/04/08 01:46:11;;;;;;;8.47;4.10;;;1.30;99.90;;;;;;5032195;28;20029;-89
2021/04/08 01:48:38;;;;;;;10.10;4.07;;;1.30;99.90;;;;;;5032863;28;20881;-89
2021/04/08 01:51:06;;;;;;;10.13;4.47;;;1.40;99.90;;;;;;5033757;28;20021;-89
2021/04/08 01:53:39;;;;;;;9.20;3.87;;;1.40;99.90;;;;;;5026533;28;20085;-89
2021/04/08 01:56:07;;;;;;;10.27;3.80;;;1.40;99.90;;;;;;5028527;28;20029;-89
2021/04/08 01:58:33;;;;;;;7.73;3.90;;;1.30;99.90;;;;;;5033865;28;20030;-88
2021/04/08 02:01:00;;;;;;;7.87;3.97;;;1.30;99.90;;;;;;5033891;28;20075;-89
2021/04/08 02:03:27;;;;;;;7.87;3.53;;;1.40;99.90;;;;;;5033307;28;20089;-89
2021/04/08 02:05:54;;;;;;;7.57;3.67;;;1.40;99.90;;;;;;5033800;28;20032;-88
2021/04/08 02:08:20;;;;;;;8.00;3.20;;;1.60;99.90;;;;;;5036028;28;20032;-89
2021/04/08 02:10:47;;;;;;;9.63;3.10;;;1.50;99.90;;;;;;5033380;28;20018;-88
2021/04/08 02:13:14;;;;;;;6.70;3.30;;;1.50;99.90;;;;;;5034298;28;20026;-89
2021/04/08 02:15:43;;;;;;;6.17;2.73;;;1.50;99.90;;;;;;5033799;28;20033;-89
2021/04/08 02:18:13;;;;;;;9.37;3.07;;;1.70;99.90;;;;;;5032816;28;20112;-89
2021/04/08 02:20:42;;;;;;;6.80;2.50;;;1.50;99.90;;;;;;5034928;28;20025;-89
2021/04/08 02:23:09;;;;;;;21.67;2.80;;;1.60;99.90;;;;;;5036219;28;20034;-89
2021/04/08 02:25:37;;;;;;;6.77;2.30;;;1.50;99.90;;;;;;5034350;28;20071;-89
2021/04/08 02:28:07;;;;;;;5.43;2.10;;;1.60;99.90;;;;;;5031821;28;20398;-89
2021/04/08 02:30:46;;;;;;;8.30;2.90;;;1.50;99.90;;;;;;5030930;28;20037;-89
2021/04/08 02:33:22;;;;;;;7.50;2.60;;;1.50;99.90;;;;;;5032870;28;20552;-88
2021/04/08 02:35:49;;;;;;;5.80;2.43;;;1.50;99.90;;;;;;5033428;28;20029;-89
2021/04/08 02:38:16;;;;;;;6.83;2.30;;;1.50;99.90;;;;;;5034392;28;20060;-89
2021/04/08 02:40:41;;;;;;;6.70;2.53;;;1.50;99.90;;;;;;5029765;28;20037;-88
2021/04/08 02:43:09;;;;;;;6.17;2.53;;;1.40;99.90;;;;;;5043459;28;20029;-89
2021/04/08 02:45:35;;;;;;;6.37;2.80;;;1.50;99.90;;;;;;5033992;28;20026;-87
2021/04/08 02:48:01;;;;;;;4.83;2.03;;;1.40;99.90;;;;;;5033351;28;20455;-89
2021/04/08 02:50:26;;;;;;;5.97;2.17;;;1.50;99.90;;;;;;5034098;28;20087;-89
2021/04/08 02:53:18;;;;;;;4.63;2.07;;;1.50;99.90;;;;;;5033432;28;20100;-88
2021/04/08 02:55:50;;;;;;;8.40;2.10;;;1.60;99.90;;;;;;5029261;28;20127;-89
2021/04/08 02:58:17;;;;;;;3.95;1.95;;;1.50;99.90;;;;;;5034784;28;20056;-89
2021/04/08 03:00:57;;;;;;;4.73;1.83;;;1.60;99.90;;;;;;5033539;28;20053;-89
2021/04/08 03:03:33;;;;;;;6.37;1.87;;;1.70;99.90;;;;;;5035168;28;20029;-88
2021/04/08 03:06:04;;;;;;;5.10;1.70;;;1.60;99.90;;;;;;5032546;28;20025;-88
2021/04/08 03:08:31;;;;;;;5.93;2.00;;;1.50;99.90;;;;;;5017351;28;20028;-88
2021/04/08 03:11:04;;;;;;;7.30;2.57;;;1.50;99.90;;;;;;5032379;28;20513;-89
2021/04/08 03:13:36;;;;;;;5.90;2.00;;;1.50;99.90;;;;;;5033006;28;20387;-89
2021/04/08 03:16:05;;;;;;;4.68;1.85;;;1.50;99.90;;;;;;5034504;28;20040;-89
2021/04/08 03:18:32;;;;;;;4.57;1.80;;;1.50;99.90;;;;;;5037409;28;20470;-89
2021/04/08 03:20:58;;;;;;;5.97;1.77;;;1.50;99.90;;;;;;5038703;28;20044;-89
2021/04/08 03:23:25;;;;;;;6.10;1.80;;;1.50;99.90;;;;;;5038430;28;20061;-88
2021/04/08 03:25:52;;;;;;;4.37;1.67;;;1.50;99.90;;;;;;5049125;28;20090;-89
2021/04/08 03:28:19;;;;;;;5.13;1.60;;;1.60;99.90;;;;;;5047824;28;20029;-89
2021/04/08 03:30:46;;;;;;;5.60;1.60;;;1.60;99.90;;;;;;5041387;28;20029;-89
2021/04/08 03:33:15;;;;;;;3.50;1.60;;;1.60;99.90;;;;;;5044340;28;20033;-88
2021/04/08 03:35:48;;;;;;;6.20;1.57;;;1.60;99.90;;;;;;5037797;28;20037;-88
2021/04/08 03:38:19;;;;;;;9.20;1.90;;;1.70;99.90;;;;;;5033300;28;20047;-89
2021/04/08 03:40:46;;;;;;;6.50;1.77;;;1.50;99.90;;;;;;5034956;28;20030;-89
2021/04/08 03:43:15;;;;;;;4.07;1.60;;;1.60;99.90;;;;;;5034807;28;20120;-88
2021/04/08 03:45:41;;;;;;;4.57;2.00;;;1.50;99.90;;;;;;5033567;28;20029;-89
2021/04/08 03:48:09;;;;;;;7.43;1.90;;;1.60;99.90;;;;;;5035319;28;20083;-89
2021/04/08 03:50:35;;;;;;;6.27;1.60;;;1.60;99.90;;;;;;5035003;28;20044;-88
2021/04/08 03:53:03;;;;;;;7.47;1.93;;;1.50;99.90;;;;;;5035951;28;20039;-90
2021/04/08 03:55:29;;;;;;;3.90;1.73;;;1.50;99.90;;;;;;5034395;28;20038;-89
2021/04/08 03:57:57;;;;;;;3.07;1.30;;;1.50;99.90;;;;;;5036421;28;20030;-89
2021/04/08 04:00:24;;;;;;;4.23;1.43;;;1.50;99.90;;;;;;5034356;28;20036;-89
2021/04/08 04:02:50;;;;;;;5.37;1.83;;;1.50;99.90;;;;;;5032559;28;20059;-88
2021/04/08 04:05:16;;;;;;;3.70;1.80;;;1.50;99.90;;;;;;5034811;28;20112;-88
2021/04/08 04:07:49;;;;;;;4.20;1.90;;;1.50;99.90;;;;;;5035731;28;20028;-88
2021/04/08 04:10:17;;;;;;;5.57;1.70;;;1.60;99.90;;;;;;5034275;28;20013;-88
2021/04/08 04:12:44;;;;;;;3.67;1.73;;;1.60;99.90;;;;;;5033295;28;20029;-89
2021/04/08 04:15:11;;;;;;;4.90;1.60;;;1.50;99.90;;;;;;5035248;28;20509;-89
2021/04/08 04:17:37;;;;;;;5.13;2.13;;;1.50;99.90;;;;;;5034930;28;20060;-89
2021/04/08 04:20:06;;;;;;;7.13;1.67;;;1.50;99.90;;;;;;5024036;28;20018;-88
2021/04/08 04:22:37;;;;;;;7.43;2.00;;;1.40;99.90;;;;;;5032471;28;20038;-89
2021/04/08 04:25:05;;;;;;;5.13;1.80;;;1.50;99.90;;;;;;5034858;28;20022;-88
2021/04/08 04:27:32;;;;;;;3.93;1.70;;;1.40;99.90;;;;;;5025918;28;20049;-89
2021/04/08 04:29:57;;;;;;;5.93;1.80;;;1.40;99.90;;;;;;5028988;28;20022;-89
2021/04/08 04:32:23;;;;;;;3.80;1.90;;;1.40;99.90;;;;;;5034199;28;20115;-89
2021/04/08 04:34:49;;;;;;;3.80;1.63;;;1.40;99.90;;;;;;5034487;28;20056;-89
2021/04/08 04:37:14;;;;;;;6.07;1.90;;;1.40;99.90;;;;;;5033852;28;20029;-88
2021/04/08 04:39:40;;;;;;;7.53;1.80;;;1.40;99.90;;;;;;5032471;28;20033;-88
2021/04/08 04:42:07;;;;;;;7.43;1.80;;;1.40;99.90;;;;;;5033314;28;20495;-88
2021/04/08 04:44:34;;;;;;;4.80;2.00;;;1.40;99.90;;;;;;5032993;28;20084;-89
2021/04/08 04:47:00;;;;;;;4.30;2.10;;;1.50;99.90;;;;;;5033600;28;20112;-89
2021/04/08 04:49:26;;;;;;;6.23;1.60;;;1.50;99.90;;;;;;5033275;28;20075;-89
2021/04/08 04:51:52;;;;;;;4.27;1.70;;;1.40;99.90;;;;;;5034553;28;20038;-89
2021/04/08 04:54:18;;;;;;;6.13;2.23;;;1.40;99.90;;;;;;5033332;28;20064;-89
2021/04/08 04:56:44;;;;;;;5.30;1.87;;;1.50;99.90;;;;;;5033144;28;20036;-89
2021/04/08 04:59:09;;;;;;;5.20;1.80;;;1.40;99.90;;;;;;5033335;28;20029;-89
2021/04/08 05:01:35;;;;;;;7.17;1.87;;;1.40;99.90;;;;;;5032346;28;20061;-89
2021/04/08 05:04:01;;;;;;;6.27;1.80;;;1.50;99.90;;;;;;5033253;28;20034;-89
2021/04/08 05:06:26;;;;;;;7.43;2.17;;;1.70;99.90;;;;;;5024288;28;20105;-89
2021/04/08 05:08:52;;;;;;;6.70;2.07;;;1.60;99.90;;;;;;5048633;28;20051;-89
2021/04/08 05:11:18;;;;;;;4.80;1.70;;;1.50;99.90;;;;;;5034785;28;20086;-89
2021/04/08 05:13:43;;;;;;;6.70;2.00;;;1.50;99.90;;;;;;5032517;28;20029;-89
2021/04/08 05:16:09;;;;;;;5.60;1.90;;;1.60;99.90;;;;;;5028607;28;20030;-89
2021/04/08 05:18:34;;;;;;;5.67;2.43;;;1.60;99.90;;;;;;5032570;28;20037;-89
2021/04/08 05:21:00;;;;;;;6.70;2.13;;;1.60;99.90;;;;;;5030205;28;20029;-89
2021/04/08 05:23:26;;;;;;;5.90;2.07;;;1.60;99.90;;;;;;5025624;28;20030;-89
2021/04/08 05:25:52;;;;;;;7.20;2.23;;;1.60;99.90;;;;;;5032970;28;20079;-89
2021/04/08 05:28:18;;;;;;;5.77;2.47;;;1.50;99.90;;;;;;5023949;28;20117;-88
2021/04/08 05:30:44;;;;;;;6.00;2.17;;;1.70;99.90;;;;;;5029454;28;20032;-89
2021/04/08 05:33:10;;;;;;;5.63;2.10;;;1.50;99.90;;;;;;5033958;28;20025;-89
2021/04/08 05:35:37;;;;;;;5.43;2.47;;;1.60;99.90;;;;;;5033288;28;20026;-89
2021/04/08 05:38:03;;;;;;;5.77;2.60;;;1.60;99.90;;;;;;5034442;28;20144;-89
2021/04/08 05:40:29;;;;;;;7.07;2.70;;;1.60;99.90;;;;;;5036441;28;20021;-89
2021/04/08 05:42:54;;;;;;;5.80;2.57;;;1.70;99.90;;;;;;5033524;28;20048;-88
2021/04/08 05:45:21;;;;;;;7.20;2.30;;;1.70;99.90;;;;;;5034181;28;20184;-88
2021/04/08 05:47:48;;;;;;;8.37;3.17;;;1.70;99.90;;;;;;5035296;28;20022;-89
2021/04/08 05:50:15;;;;;;;6.33;2.10;;;1.80;99.90;;;;;;5040739;28;20103;-88
2021/04/08 05:52:40;;;;;;;6.30;1.70;;;1.70;99.90;;;;;;5034727;28;20063;-89
2021/04/08 05:55:08;;;;;;;5.73;2.33;;;1.70;99.90;;;;;;5031726;28;20021;-88
2021/04/08 05:57:34;;;;;;;6.07;2.00;;;1.70;99.90;;;;;;5032542;28;20417;-88
2021/04/08 06:00:00;;;;;;;10.37;2.70;;;1.80;99.90;;;;;;5029834;28;20025;-89
2021/04/08 06:02:26;;;;;;;5.37;2.10;;;1.80;99.90;;;;;;5029753;28;20079;-88
2021/04/08 06:04:51;;;;;;;7.57;1.77;;;1.90;99.90;;;;;;5030575;28;20045;-88
2021/04/08 06:07:17;;;;;;;4.40;1.77;;;1.90;99.90;;;;;;5030927;28;20038;-87
2021/04/08 06:09:42;;;;;;;5.60;1.90;;;2.00;99.90;;;;;;5024399;28;20186;-88
2021/04/08 06:12:09;;;;;;;6.33;1.90;;;2.00;99.90;;;;;;5030364;28;20017;-88
2021/04/08 06:14:37;;;;;;;5.00;2.40;;;2.10;99.90;;;;;;5029057;28;20166;-87
2021/04/08 06:17:03;;;;;;;5.87;2.20;;;2.20;99.90;;;;;;5029558;28;20032;-88
2021/04/08 06:19:29;;;;;;;6.23;2.07;;;2.30;99.90;;;;;;5030492;28;20379;-88
2021/04/08 06:21:55;;;;;;;8.20;2.30;;;2.30;99.90;;;;;;5031136;28;20036;-87
2021/04/08 06:24:23;;;;;;;8.27;1.90;;;2.20;99.90;;;;;;5030287;28;20022;-89
2021/04/08 06:26:49;;;;;;;7.63;2.20;;;2.20;99.90;;;;;;5024228;28;20428;-88
2021/04/08 06:29:15;;;;;;;6.53;2.00;;;2.30;99.90;;;;;;5021391;28;20025;-87
2021/04/08 06:31:41;;;;;;;7.57;2.10;;;2.40;99.90;;;;;;5030107;28;20451;-89
2021/04/08 06:34:07;;;;;;;8.20;2.07;;;2.40;99.90;;;;;;5026969;28;20025;-88
2021/04/08 06:36:33;;;;;;;6.17;2.30;;;2.60;99.90;;;;;;5032520;28;20044;-89
2021/04/08 06:38:58;;;;;;;7.00;2.60;;;2.70;99.90;;;;;;5025258;28;20021;-89
2021/04/08 06:41:24;;;;;;;6.40;2.77;;;2.70;99.90;;;;;;5028336;28;20118;-89
2021/04/08 06:43:52;;;;;;;5.60;2.90;;;2.70;99.90;;;;;;5029593;28;20348;-88
2021/04/08 06:46:21;;;;;;;7.77;2.73;;;2.80;99.90;;;;;;5030543;28;20018;-88
2021/04/08 06:48:54;;;;;;;6.93;2.90;;;2.80;99.90;;;;;;5031734;28;20021;-87
2021/04/08 06:51:21;;;;;;;7.43;3.00;;;2.80;99.90;;;;;;5030262;28;20017;-88
2021/04/08 06:53:51;;;;;;;7.07;2.80;;;2.80;99.90;;;;;;5032654;28;20025;-88
2021/04/08 06:56:17;;;;;;;7.03;2.87;;;2.90;99.90;;;;;;5031392;28;20505;-90
2021/04/08 06:58:43;;;;;;;9.87;3.03;;;2.90;99.90;;;;;;5030057;28;20079;-90
2021/04/08 07:01:10;;;;;;;5.97;2.87;;;2.90;99.90;;;;;;5029928;28;20025;-88
2021/04/08 07:03:38;;;;;;;7.57;3.20;;;2.90;99.90;;;;;;5033479;28;20025;-89
2021/04/08 07:06:04;;;;;;;12.80;3.70;;;2.90;99.90;;;;;;5030310;28;20013;-90
2021/04/08 07:08:32;;;;;;;10.00;3.37;;;3.10;99.90;;;;;;5029759;28;20110;-92
2021/04/08 07:10:59;;;;;;;10.07;3.70;;;3.20;99.90;;;;;;5016288;28;20018;-90
2021/04/08 07:13:30;;;;;;;10.30;4.00;;;3.30;99.90;;;;;;5027367;28;20021;-91
2021/04/08 07:16:15;;;;;;;11.03;3.83;;;3.30;99.90;;;;;;5032353;28;20040;-90
2021/04/08 07:18:41;;;;;;;8.27;3.67;;;3.40;99.90;;;;;;5029965;28;20117;-90
2021/04/08 07:21:07;;;;;;;7.80;3.60;;;3.40;99.90;;;;;;5031225;28;20037;-90
2021/04/08 07:23:34;;;;;;;8.40;3.57;;;3.60;99.90;;;;;;5030182;28;20095;-90
2021/04/08 07:26:07;;;;;;;8.23;3.80;;;3.60;99.90;;;;;;5030096;28;20041;-91
2021/04/08 07:28:43;;;;;;;7.57;3.40;;;3.50;99.90;;;;;;5026954;28;20756;-91
2021/04/08 07:31:33;;;;;;;10.73;3.63;;;3.50;99.90;;;;;;5023002;28;20032;-91
2021/04/08 07:34:00;;;;;;;8.17;3.13;;;3.50;99.90;;;;;;5027797;28;20026;-91
2021/04/08 07:36:31;;;;;;;10.37;4.00;;;3.50;99.90;;;;;;5020697;28;20487;-89
2021/04/08 08:08:08;;;;;;;7.70;2.73;;;4.30;99.90;;;;;;5036080;28;20045;-90
2021/04/08 08:10:39;;;;;;;7.97;2.60;;;4.30;99.90;;;;;;5029586;28;20506;-91
2021/04/08 08:13:25;;;;;;;6.60;2.80;;;4.30;99.90;;;;;;5032056;28;20540;-90
2021/04/08 08:15:51;;;;;;;5.57;2.53;;;4.30;99.90;;;;;;5031758;28;20033;-89
2021/04/08 08:18:33;;;;;;;5.10;2.63;;;4.30;99.90;;;;;;5028681;28;20041;-92
2021/04/08 08:21:02;;;;;;;7.30;3.20;;;4.30;99.90;;;;;;5032029;28;20122;-91
2021/04/08 08:23:42;;;;;;;7.70;2.80;;;4.60;99.90;;;;;;5017725;28;20712;-91
2021/04/08 08:26:48;;;;;;;9.97;3.10;;;4.40;99.90;;;;;;5034594;28;20022;-92
2021/04/08 08:29:30;;;;;;;8.20;2.90;;;4.50;99.90;;;;;;5021753;28;20037;-92
2021/04/08 08:31:58;;;;;;;;;;;4.40;99.90;;;;;;5028953;28;20057;-91
2021/04/08 08:34:38;;;;;;;8.27;2.67;;;4.60;99.90;;;;;;5024547;28;19913;-90
2021/04/08 08:37:10;;;;;;;6.37;3.07;;;5.10;99.90;;;;;;5023777;28;20056;-91
2021/04/08 08:39:39;;;;;;;7.97;2.83;;;4.90;99.90;;;;;;5025509;28;20450;-91
2021/04/08 08:42:09;;;;;;;7.67;2.87;;;4.90;99.90;;;;;;5031664;28;20038;-90
2021/04/08 08:44:40;;;;;;;7.87;2.73;;;5.10;99.90;;;;;;5029838;28;20406;-90
2021/04/08 08:47:22;;;;;;;13.17;3.57;;;5.20;96.70;;;;;;5028618;28;21601;-91
2021/04/08 08:49:51;;;;;;;6.18;2.67;;;5.20;99.90;;;;;;5030969;28;20352;-91
2021/04/08 08:52:24;;;;;;;7.63;2.97;;;5.40;98.20;;;;;;5033597;28;20036;-91
2021/04/08 08:54:51;;;;;;;7.83;2.83;;;5.40;96.50;;;;;;5040942;28;20030;-91
2021/04/08 08:57:21;;;;;;;7.80;2.53;;;5.20;96.00;;;;;;5032234;28;20017;-91
2021/04/08 08:59:49;;;;;;;7.47;2.77;;;5.40;96.90;;;;;;5032407;28;20482;-91
2021/04/08 09:02:16;;;;;;;6.70;3.03;;;5.30;97.30;;;;;;5031308;28;20068;-91
2021/04/08 09:04:43;;;;;;;7.00;2.90;;;5.30;95.20;;;;;;5032253;28;20497;-91
2021/04/08 09:07:12;;;;;;;7.07;2.93;;;5.40;94.50;;;;;;5031881;28;20087;-90
2021/04/08 09:09:54;;;;;;;7.17;2.77;;;5.70;94.30;;;;;;5034580;28;20178;-91
2021/04/08 09:12:22;;;;;;;7.43;2.47;;;5.70;92.60;;;;;;5033008;28;20033;-91
2021/04/08 09:14:49;;;;;;;6.50;2.87;;;5.30;92.80;;;;;;5033150;28;20498;-91
2021/04/08 09:17:38;;;;;;;6.27;2.57;;;5.60;92.30;;;;;;5029345;28;20041;-90
2021/04/08 09:20:07;;;;;;;7.27;2.50;;;5.60;91.80;;;;;;5033873;28;20024;-91
2021/04/08 09:22:34;;;;;;;9.13;2.97;;;5.60;92.30;;;;;;5031194;28;20038;-89
2021/04/08 09:25:00;;;;;;;8.17;2.70;;;5.80;94.20;;;;;;5030519;28;20017;-89
2021/04/08 09:27:26;;;;;;;6.83;2.70;;;6.10;92.00;;;;;;5034744;28;20021;-91
2021/04/08 09:29:56;;;;;;;7.07;2.40;;;6.20;92.80;;;;;;5032170;28;20071;-91
2021/04/08 09:32:36;;;;;;;6.73;2.43;;;6.30;92.00;;;;;;5034614;28;20021;-90
2021/04/08 09:35:04;;;;;;;4.83;2.10;;;6.20;91.50;;;;;;5035683;28;20029;-88
2021/04/08 09:37:45;;;;;;;5.80;1.80;;;5.80;87.90;;;;;;5021766;28;20029;-88
2021/04/08 09:40:28;;;;;;;5.70;1.97;;;5.50;87.30;;;;;;5028305;28;20021;-90
2021/04/08 09:43:01;;;;;;;6.00;2.13;;;5.30;90.10;;;;;;5030122;28;20022;-90
2021/04/08 09:45:29;;;;;;;7.03;2.17;;;5.20;90.70;;;;;;5032564;28;20068;-91
2021/04/08 09:48:10;;;;;;;8.93;2.63;;;5.20;90.40;;;;;;5032910;28;20025;-90
2021/04/08 09:50:52;;;;;;;4.20;2.07;;;5.20;91.10;;;;;;5020491;28;20103;-90
2021/04/08 09:53:27;;;;;;;6.25;2.13;;;5.40;90.00;;;;;;5030583;28;20040;-90
2021/04/08 09:56:02;;;;;;;4.63;2.00;;;5.50;90.50;;;;;;5031230;28;20063;-90
2021/04/08 09:58:30;;;;;;;6.23;2.00;;;5.50;86.90;;;;;;5036344;28;20108;-89
2021/04/08 10:00:59;;;;;;;6.50;2.23;;;5.50;88.00;;;;;;5031585;28;20052;-90
2021/04/08 10:03:38;;;;;;;5.37;1.77;;;5.70;90.60;;;;;;5023777;28;20040;-91
2021/04/08 10:06:18;;;;;;;5.90;2.40;;;5.70;87.80;;;;;;5030890;28;20018;-90
2021/04/08 10:08:46;;;;;;;4.93;2.23;;;5.80;90.20;;;;;;5030063;28;20026;-89
2021/04/08 10:11:35;;;;;;;5.57;2.50;;;5.80;89.70;;;;;;5029637;28;20021;-89
2021/04/08 10:14:19;;;;;;;5.70;1.80;;;5.70;89.60;;;;;;5030684;28;20079;-89
2021/04/08 10:16:57;;;;;;;7.17;2.30;;;5.90;87.60;;;;;;5038179;28;20032;-90
2021/04/08 10:19:29;;;;;;;10.60;2.30;;;5.80;89.00;;;;;;5029519;28;20120;-90
2021/04/08 10:21:55;;;;;;;5.90;1.77;;;5.80;89.70;;;;;;5030168;28;20057;-90
2021/04/08 10:24:21;;;;;;;7.00;2.00;;;5.70;89.80;;;;;;5035424;28;20060;-90
2021/04/08 10:26:47;;;;;;;8.77;2.30;;;5.70;89.20;;;;;;5030275;28;20021;-90
2021/04/08 10:29:29;;;;;;;4.87;1.80;;;5.80;91.00;;;;;;5029438;28;20025;-90
2021/04/08 10:31:55;;;;;;;6.70;2.07;;;5.90;87.70;;;;;;5031971;28;20462;-90
2021/04/08 10:34:20;;;;;;;4.87;2.27;;;6.20;88.80;;;;;;5028233;28;20025;-90
2021/04/08 10:36:57;;;;;;;8.13;2.00;;;6.40;88.80;;;;;;5029408;28;20440;-89
2021/04/08 10:39:26;;;;;;;7.27;2.13;;;6.40;87.30;;;;;;5029642;28;20030;-90
2021/04/08 10:42:10;;;;;;;4.33;2.10;;;6.40;86.50;;;;;;5028955;28;20028;-89
2021/04/08 10:44:42;;;;;;;5.70;1.90;;;6.40;84.40;;;;;;5027254;28;20026;-90
2021/04/08 10:47:23;;;;;;;6.43;2.00;;;6.40;86.80;;;;;;5019637;28;20033;-91
2021/04/08 11:04:02;;;;;;;5.27;2.30;;;7.20;86.40;;;;;;5042203;28;20033;-89
2021/04/08 11:34:08;;;;;;;6.27;2.60;;;8.00;69.00;;;;;;5031848;28;20092;-88
2021/04/08 11:37:14;;;;;;;4.60;1.80;;;7.80;68.60;;;;;;5032833;28;20045;-88
2021/04/08 11:40:23;;;;;;;7.03;2.10;;;7.70;70.80;;;;;;5035079;28;20036;-88
2021/04/08 11:43:46;;;;;;;6.03;1.90;;;7.90;70.60;;;;;;5035802;28;20034;-89
2021/04/08 18:21:46;;;;;;;6.20;2.40;;;6.60;65.60;;;;;;5041001;23;20065;-91
2021/04/08 18:24:12;;;;;;;10.10;2.80;;;6.60;65.80;;;;;;5004176;28;20034;-92
2021/04/08 18:26:37;;;;;;;6.63;2.30;;;6.60;66.30;;;;;;5010924;28;20053;-92
2021/04/08 18:31:39;;;;;;;6.43;2.33;;;6.40;67.00;;;;;;5960145;22;20048;-91
2021/04/08 18:34:05;;;;;;;4.37;1.97;;;6.40;68.00;;;;;;5017683;28;20023;-94
2021/04/08 18:36:31;;;;;;;9.07;3.00;;;6.40;68.50;;;;;;5019084;28;20061;-93
2021/04/08 18:38:59;;;;;;;8.77;4.07;;;6.20;69.60;;;;;;5026560;28;20032;-94
2021/04/08 18:41:25;;;;;;;7.93;3.30;;;6.20;70.70;;;;;;5025364;28;20197;-94
2021/04/08 18:43:51;;;;;;;10.80;4.30;;;6.20;71.10;;;;;;5022023;28;20088;-93
2021/04/08 18:46:17;;;;;;;9.53;4.83;;;6.10;72.30;;;;;;5025908;28;20089;-95
2021/04/08 18:48:43;;;;;;;11.50;4.27;;;6.00;73.50;;;;;;5023882;28;20026;-93
2021/04/08 18:51:13;;;;;;;11.00;4.80;;;6.10;74.10;;;;;;5011922;28;20029;-93
2021/04/08 18:53:39;;;;;;;8.97;3.70;;;6.00;74.50;;;;;;5019217;28;20044;-92
2021/04/08 20:01:18;;;;;;;8.00;4.17;;;4.80;90.00;;;;;;5036703;28;20477;-87
2021/04/08 20:03:44;;;;;;;10.43;4.97;;;4.80;89.90;;;;;;5026969;28;20025;-88
2021/04/08 20:06:11;;;;;;;13.00;5.20;;;4.70;90.20;;;;;;5015858;28;20025;-88
2021/04/08 20:08:37;;;;;;;9.77;4.47;;;4.70;90.00;;;;;;5033435;28;20030;-87
2021/04/08 20:11:03;;;;;;;10.97;4.90;;;4.70;90.40;;;;;;5006687;28;20116;-88
2021/04/08 20:13:30;;;;;;;13.00;5.57;;;4.60;91.00;;;;;;5020204;28;20049;-87
2021/04/08 20:15:58;;;;;;;12.67;5.67;;;4.70;90.80;;;;;;5011971;28;20051;-88
2021/04/08 20:18:24;;;;;;;14.80;5.07;;;4.60;91.00;;;;;;5018929;28;20470;-88
2021/04/08 20:20:51;;;;;;;12.77;5.63;;;4.60;91.20;;;;;;5023235;28;20021;-89
2021/04/08 20:23:16;;;;;;;13.23;5.73;;;4.50;91.60;;;;;;5030576;28;20135;-89
2021/04/08 20:25:42;;;;;;;12.00;6.77;;;4.50;91.60;;;;;;5016299;28;20066;-89
2021/04/08 20:28:08;;;;;;;16.00;6.63;;;4.50;92.10;;;;;;5027140;28;20042;-89
2021/04/08 20:30:36;;;;;;;14.40;6.20;;;4.60;92.60;;;;;;5024902;28;20040;-90
2021/04/08 20:33:02;;;;;;;13.17;5.70;;;4.40;93.00;;;;;;5054921;28;20025;-89
2021/04/08 20:35:30;;;;;;;11.97;6.17;;;4.40;93.60;;;;;;5052477;28;20033;-89
2021/04/08 20:37:56;;;;;;;12.53;5.40;;;4.30;93.60;;;;;;5027505;28;20056;-89
2021/04/08 20:40:22;;;;;;;10.60;5.50;;;4.30;93.50;;;;;;5026791;28;20028;-89
2021/04/08 20:42:49;;;;;;;13.20;5.93;;;4.30;93.60;;;;;;5031781;28;20017;-91
2021/04/08 20:45:15;;;;;;;10.53;5.13;;;4.30;94.00;;;;;;5025835;28;20029;-89
2021/04/08 20:47:42;;;;;;;14.23;5.37;;;4.20;93.50;;;;;;5022145;28;20043;-89
2021/04/08 20:50:09;;;;;;;10.10;5.70;;;4.10;93.60;;;;;;5022338;28;20093;-89
2021/04/08 20:52:34;;;;;;;10.67;4.93;;;4.20;93.60;;;;;;5006000;28;20025;-89
2021/04/08 20:55:00;;;;;;;10.93;4.83;;;4.30;93.90;;;;;;5018166;28;20022;-88
2021/04/08 20:57:26;;;;;;;10.17;5.27;;;4.20;94.00;;;;;;5007209;28;20109;-89
2021/04/08 20:59:52;;;;;;;13.90;5.37;;;4.10;94.10;;;;;;5015002;28;20477;-89
2021/04/08 21:02:19;;;;;;;13.73;5.20;;;4.10;93.80;;;;;;5019079;28;20038;-89
2021/04/08 21:04:44;;;;;;;12.23;5.37;;;4.10;94.00;;;;;;5011177;28;20151;-89
2021/04/08 21:07:10;;;;;;;11.00;5.40;;;3.90;94.50;;;;;;5013833;28;20059;-89
2021/04/08 21:09:36;;;;;;;12.17;5.50;;;4.00;94.80;;;;;;5009731;28;20026;-89
2021/04/08 21:12:03;;;;;;;10.07;5.10;;;4.00;95.00;;;;;;5013327;28;20017;-89
2021/04/08 21:14:28;;;;;;;12.67;5.27;;;3.90;95.50;;;;;;5017481;28;20056;-89
2021/04/08 21:16:56;;;;;;;10.97;5.43;;;3.90;95.90;;;;;;5017866;28;20025;-90
2021/04/08 21:19:24;;;;;;;10.87;5.17;;;3.90;96.20;;;;;;5008247;28;20480;-90
2021/04/08 21:21:50;;;;;;;14.73;5.07;;;3.80;96.40;;;;;;5016259;28;20029;-89
2021/04/08 21:24:26;;;;;;;9.63;5.27;;;4.00;97.30;;;;;;5019216;28;20067;-88
2021/04/08 21:26:51;;;;;;;12.90;5.10;;;3.80;97.00;;;;;;5018309;28;20096;-89
2021/04/08 21:29:18;;;;;;;10.50;5.47;;;3.80;97.60;;;;;;5010730;28;20049;-88
2021/04/08 21:31:44;;;;;;;12.73;4.97;;;3.70;97.20;;;;;;5018880;28;20394;-89
2021/04/08 21:34:10;;;;;;;10.93;5.53;;;3.70;98.50;;;;;;5018131;28;20033;-89
2021/04/08 21:36:35;;;;;;;9.33;4.50;;;3.70;97.90;;;;;;5035107;28;20057;-89
2021/04/08 21:39:03;;;;;;;11.90;4.67;;;3.60;98.90;;;;;;5018848;28;20037;-89
2021/04/08 21:41:31;;;;;;;10.03;4.90;;;3.60;98.80;;;;;;5009350;28;20030;-90
2021/04/08 21:43:58;;;;;;;9.17;4.97;;;3.50;98.70;;;;;;5004243;28;20116;-88
2021/04/08 21:46:26;;;;;;;12.17;5.50;;;3.40;98.70;;;;;;5018541;28;20036;-89
2021/04/08 21:48:52;;;;;;;12.40;5.37;;;3.40;99.00;;;;;;5017683;28;20033;-89
2021/04/08 21:51:17;;;;;;;10.47;4.90;;;3.30;99.20;;;;;;5036677;28;20029;-89
2021/04/08 21:53:43;;;;;;;11.57;5.23;;;3.30;99.90;;;;;;5017877;28;20089;-89
2021/04/08 21:56:09;;;;;;;12.07;4.63;;;3.30;99.80;;;;;;5018108;28;20067;-89
2021/04/08 21:58:34;;;;;;;9.13;4.90;;;3.40;99.90;;;;;;5017726;28;20087;-88
2021/04/08 22:01:00;;;;;;;12.87;5.40;;;3.30;99.90;;;;;;5017751;28;20048;-89